sensor_id;sensor_type;location;lat;lon;timestamp;temperature;humidity
5023;DHT22;2530;47.990;7.866;2022-11-15T00:00:08;9.90;99.90
5023;DHT22;2530;47.990;7.866;2022-11-15T00:02:34;9.90;99.90
5023;DHT22;2530;47.990;7.866;2022-11-15T00:05:00;10.00;99.90
5023;DHT22;2530;47.990;7.866;2022-11-15T00:07:25;10.00;99.90
5023;DHT22;2530;47.990;7.866;2022-11-15T00:09:51;10.00;99.90
5023;DHT22;2530;47.990;7.866;2022-11-15T00:12:16;9.90;99.90
5023;DHT22;2530;47.990;7.866;2022-11-15T00:14:42;9.90;99.90
5023;DHT22;2530;47.990;7.866;2022-11-15T00:17:07;9.90;99.90
5023;DHT22;2530;47.990;7.866;2022-11-15T00:19:33;10.00;99.90
5023;DHT22;2530;47.990;7.866;2022-11-15T00:21:59;10.10;99.90
5023;DHT22;2530;47.990;7.866;2022-11-15T00:24:24;10.10;99.90
5023;DHT22;2530;47.990;7.866;2022-11-15T00:26:50;10.10;99.90
5023;DHT22;2530;47.990;7.866;2022-11-15T00:29:15;10.00;99.90
5023;DHT22;2530;47.990;7.866;2022-11-15T00:31:41;10.00;99.90
5023;DHT22;2530;47.990;7.866;2022-11-15T00:34:06;10.00;99.90
5023;DHT22;2530;47.990;7.866;2022-11-15T00:36:35;10.00;99.90
5023;DHT22;2530;47.990;7.866;2022-11-15T00:39:00;10.00;99.90
5023;DHT22;2530;47.990;7.866;2022-11-15T00:41:26;10.10;99.90
5023;DHT22;2530;47.990;7.866;2022-11-15T00:43:51;10.10;99.90
5023;DHT22;2530;47.990;7.866;2022-11-15T00:46:17;10.00;99.90
5023;DHT22;2530;47.990;7.866;2022-11-15T00:48:43;10.10;99.90
5023;DHT22;2530;47.990;7.866;2022-11-15T00:51:08;10.10;99.90
5023;DHT22;2530;47.990;7.866;2022-11-15T00:53:34;10.00;99.90
5023;DHT22;2530;47.990;7.866;2022-11-15T00:55:59;10.00;99.90
5023;DHT22;2530;47.990;7.866;2022-11-15T00:58:25;10.00;99.90
5023;DHT22;2530;47.990;7.866;2022-11-15T01:00:50;10.00;99.90
5023;DHT22;2530;47.990;7.866;2022-11-15T01:03:16;10.00;99.90
5023;DHT22;2530;47.990;7.866;2022-11-15T01:05:41;10.20;99.90
5023;DHT22;2530;47.990;7.866;2022-11-15T01:08:14;10.20;99.90
5023;DHT22;2530;47.990;7.866;2022-11-15T01:10:41;10.30;99.90
5023;DHT22;2530;47.990;7.866;2022-11-15T01:13:06;10.30;99.90
5023;DHT22;2530;47.990;7.866;2022-11-15T01:15:32;10.40;99.90
5023;DHT22;2530;47.990;7.866;2022-11-15T01:17:58;10.50;99.90
5023;DHT22;2530;47.990;7.866;2022-11-15T01:20:23;10.50;99.90
5023;DHT22;2530;47.990;7.866;2022-11-15T01:22:49;10.60;99.90
5023;DHT22;2530;47.990;7.866;2022-11-15T01:25:14;10.70;99.90
5023;DHT22;2530;47.990;7.866;2022-11-15T01:27:40;10.70;99.90
5023;DHT22;2530;47.990;7.866;2022-11-15T01:30:06;10.60;99.90
5023;DHT22;2530;47.990;7.866;2022-11-15T01:32:32;10.70;99.90
5023;DHT22;2530;47.990;7.866;2022-11-15T01:34:57;10.70;99.90
5023;DHT22;2530;47.990;7.866;2022-11-15T01:37:23;10.70;99.90
5023;DHT22;2530;47.990;7.866;2022-11-15T01:39:48;10.80;99.90
5023;DHT22;2530;47.990;7.866;2022-11-15T01:42:14;10.70;99.90
5023;DHT22;2530;47.990;7.866;2022-11-15T01:44:50;10.60;99.90
5023;DHT22;2530;47.990;7.866;2022-11-15T01:47:26;10.60;99.90
5023;DHT22;2530;47.990;7.866;2022-11-15T01:50:00;10.70;99.90
5023;DHT22;2530;47.990;7.866;2022-11-15T01:52:28;10.80;99.90
5023;DHT22;2530;47.990;7.866;2022-11-15T01:55:11;10.70;99.90
5023;DHT22;2530;47.990;7.866;2022-11-15T01:57:39;10.70;99.90
5023;DHT22;2530;47.990;7.866;2022-11-15T02:00:07;10.80;99.90
5023;DHT22;2530;47.990;7.866;2022-11-15T02:02:33;10.80;99.90
5023;DHT22;2530;47.990;7.866;2022-11-15T02:05:00;10.80;99.90
5023;DHT22;2530;47.990;7.866;2022-11-15T02:07:26;10.90;99.90
5023;DHT22;2530;47.990;7.866;2022-11-15T02:09:53;10.80;99.90
5023;DHT22;2530;47.990;7.866;2022-11-15T02:12:20;10.80;99.90
5023;DHT22;2530;47.990;7.866;2022-11-15T02:14:51;10.80;99.90
5023;DHT22;2530;47.990;7.866;2022-11-15T02:20:32;11.00;99.90
5023;DHT22;2530;47.990;7.866;2022-11-15T02:26:30;11.20;99.90
5023;DHT22;2530;47.990;7.866;2022-11-15T02:29:12;11.20;99.90
5023;DHT22;2530;47.990;7.866;2022-11-15T02:37:03;11.30;99.90
5023;DHT22;2530;47.990;7.866;2022-11-15T02:40:05;11.30;99.90
5023;DHT22;2530;47.990;7.866;2022-11-15T02:42:36;11.30;99.90
5023;DHT22;2530;47.990;7.866;2022-11-15T02:45:37;11.30;99.90
5023;DHT22;2530;47.990;7.866;2022-11-15T02:48:05;11.20;99.90
5023;DHT22;2530;47.990;7.866;2022-11-15T02:50:32;11.20;99.90
5023;DHT22;2530;47.990;7.866;2022-11-15T02:52:59;11.30;99.90
5023;DHT22;2530;47.990;7.866;2022-11-15T02:55:33;11.40;99.90
5023;DHT22;2530;47.990;7.866;2022-11-15T03:09:03;11.20;99.90
5023;DHT22;2530;47.990;7.866;2022-11-15T03:11:30;11.30;99.90
5023;DHT22;2530;47.990;7.866;2022-11-15T03:14:21;11.30;99.90
5023;DHT22;2530;47.990;7.866;2022-11-15T03:22:04;11.50;99.90
5023;DHT22;2530;47.990;7.866;2022-11-15T03:24:33;11.40;99.90
5023;DHT22;2530;47.990;7.866;2022-11-15T03:27:02;11.30;99.90
5023;DHT22;2530;47.990;7.866;2022-11-15T03:29:36;11.40;99.90
5023;DHT22;2530;47.990;7.866;2022-11-15T03:32:12;11.40;99.90
5023;DHT22;2530;47.990;7.866;2022-11-15T03:37:14;11.40;99.90
5023;DHT22;2530;47.990;7.866;2022-11-15T03:39:41;11.40;99.90
5023;DHT22;2530;47.990;7.866;2022-11-15T03:42:27;11.40;99.90
5023;DHT22;2530;47.990;7.866;2022-11-15T03:45:18;11.30;99.90
5023;DHT22;2530;47.990;7.866;2022-11-15T03:47:46;11.30;99.90
5023;DHT22;2530;47.990;7.866;2022-11-15T03:50:19;11.40;99.90
5023;DHT22;2530;47.990;7.866;2022-11-15T03:52:47;11.30;99.90
5023;DHT22;2530;47.990;7.866;2022-11-15T03:55:17;11.30;99.90
5023;DHT22;2530;47.990;7.866;2022-11-15T03:57:42;11.40;99.90
5023;DHT22;2530;47.990;7.866;2022-11-15T04:00:09;11.30;99.90
5023;DHT22;2530;47.990;7.866;2022-11-15T04:02:34;11.30;99.90
5023;DHT22;2530;47.990;7.866;2022-11-15T04:05:00;11.40;99.90
5023;DHT22;2530;47.990;7.866;2022-11-15T04:07:25;11.40;99.90
5023;DHT22;2530;47.990;7.866;2022-11-15T04:09:51;11.40;99.90
5023;DHT22;2530;47.990;7.866;2022-11-15T04:12:30;11.40;99.90
5023;DHT22;2530;47.990;7.866;2022-11-15T04:15:03;11.30;99.90
5023;DHT22;2530;47.990;7.866;2022-11-15T04:17:42;11.30;99.90
5023;DHT22;2530;47.990;7.866;2022-11-15T04:20:30;11.30;99.90
5023;DHT22;2530;47.990;7.866;2022-11-15T04:23:19;11.30;99.90
5023;DHT22;2530;47.990;7.866;2022-11-15T04:26:08;11.20;99.90
5023;DHT22;2530;47.990;7.866;2022-11-15T04:28:35;11.20;99.90
5023;DHT22;2530;47.990;7.866;2022-11-15T04:31:21;11.10;99.90
5023;DHT22;2530;47.990;7.866;2022-11-15T04:33:46;11.10;99.90
5023;DHT22;2530;47.990;7.866;2022-11-15T04:36:12;11.20;99.90
5023;DHT22;2530;47.990;7.866;2022-11-15T04:38:56;11.20;99.90
5023;DHT22;2530;47.990;7.866;2022-11-15T04:41:21;11.20;99.90
5023;DHT22;2530;47.990;7.866;2022-11-15T04:43:47;11.20;99.90
5023;DHT22;2530;47.990;7.866;2022-11-15T04:46:12;11.00;99.90
5023;DHT22;2530;47.990;7.866;2022-11-15T04:48:38;11.00;99.90
5023;DHT22;2530;47.990;7.866;2022-11-15T04:51:04;10.90;99.90
5023;DHT22;2530;47.990;7.866;2022-11-15T04:53:29;11.00;99.90
5023;DHT22;2530;47.990;7.866;2022-11-15T04:55:55;11.00;99.90
5023;DHT22;2530;47.990;7.866;2022-11-15T04:58:20;10.90;99.90
5023;DHT22;2530;47.990;7.866;2022-11-15T05:00:46;10.80;99.90
5023;DHT22;2530;47.990;7.866;2022-11-15T05:03:12;10.70;99.90
5023;DHT22;2530;47.990;7.866;2022-11-15T05:05:57;10.50;99.90
5023;DHT22;2530;47.990;7.866;2022-11-15T05:08:26;10.60;99.90
5023;DHT22;2530;47.990;7.866;2022-11-15T05:10:51;10.80;99.90
5023;DHT22;2530;47.990;7.866;2022-11-15T05:13:17;10.60;99.90
5023;DHT22;2530;47.990;7.866;2022-11-15T05:15:43;10.60;99.90
5023;DHT22;2530;47.990;7.866;2022-11-15T05:18:09;10.50;99.90
5023;DHT22;2530;47.990;7.866;2022-11-15T05:20:34;10.40;99.90
5023;DHT22;2530;47.990;7.866;2022-11-15T05:23:00;10.30;99.90
5023;DHT22;2530;47.990;7.866;2022-11-15T05:25:26;10.40;99.90
5023;DHT22;2530;47.990;7.866;2022-11-15T05:27:52;10.60;99.90
5023;DHT22;2530;47.990;7.866;2022-11-15T05:30:17;10.50;99.90
5023;DHT22;2530;47.990;7.866;2022-11-15T05:32:43;10.50;99.90
5023;DHT22;2530;47.990;7.866;2022-11-15T05:35:13;10.40;99.90
5023;DHT22;2530;47.990;7.866;2022-11-15T05:37:41;10.40;99.90
5023;DHT22;2530;47.990;7.866;2022-11-15T05:40:07;10.40;99.90
5023;DHT22;2530;47.990;7.866;2022-11-15T05:42:32;10.30;99.90
5023;DHT22;2530;47.990;7.866;2022-11-15T05:44:59;10.20;99.90
5023;DHT22;2530;47.990;7.866;2022-11-15T05:47:28;10.10;99.90
5023;DHT22;2530;47.990;7.866;2022-11-15T05:49:55;10.20;99.90
5023;DHT22;2530;47.990;7.866;2022-11-15T05:52:24;10.20;99.90
5023;DHT22;2530;47.990;7.866;2022-11-15T05:54:51;10.00;99.90
5023;DHT22;2530;47.990;7.866;2022-11-15T05:57:17;10.10;99.90
5023;DHT22;2530;47.990;7.866;2022-11-15T05:59:43;10.00;99.90
5023;DHT22;2530;47.990;7.866;2022-11-15T06:02:10;10.10;99.90
5023;DHT22;2530;47.990;7.866;2022-11-15T06:04:35;10.00;99.90
5023;DHT22;2530;47.990;7.866;2022-11-15T06:07:01;10.00;99.90
5023;DHT22;2530;47.990;7.866;2022-11-15T06:09:27;9.90;99.90
5023;DHT22;2530;47.990;7.866;2022-11-15T06:11:53;9.90;99.90
5023;DHT22;2530;47.990;7.866;2022-11-15T06:14:18;9.90;99.90
5023;DHT22;2530;47.990;7.866;2022-11-15T06:16:44;9.80;99.90
5023;DHT22;2530;47.990;7.866;2022-11-15T06:19:09;9.80;99.90
5023;DHT22;2530;47.990;7.866;2022-11-15T06:21:35;9.80;99.90
5023;DHT22;2530;47.990;7.866;2022-11-15T06:24:00;9.70;99.90
5023;DHT22;2530;47.990;7.866;2022-11-15T06:26:26;9.80;99.90
5023;DHT22;2530;47.990;7.866;2022-11-15T06:28:52;9.70;99.90
5023;DHT22;2530;47.990;7.866;2022-11-15T06:31:17;9.80;99.90
5023;DHT22;2530;47.990;7.866;2022-11-15T06:33:43;9.80;99.90
5023;DHT22;2530;47.990;7.866;2022-11-15T06:36:11;9.80;99.90
5023;DHT22;2530;47.990;7.866;2022-11-15T06:38:41;9.90;99.90
5023;DHT22;2530;47.990;7.866;2022-11-15T06:41:09;9.80;99.90
5023;DHT22;2530;47.990;7.866;2022-11-15T06:43:35;9.90;99.90
5023;DHT22;2530;47.990;7.866;2022-11-15T06:46:02;9.80;99.90
5023;DHT22;2530;47.990;7.866;2022-11-15T06:48:29;9.90;99.90
5023;DHT22;2530;47.990;7.866;2022-11-15T06:50:57;9.90;99.90
5023;DHT22;2530;47.990;7.866;2022-11-15T06:53:23;10.00;99.90
5023;DHT22;2530;47.990;7.866;2022-11-15T06:55:49;10.00;99.90
5023;DHT22;2530;47.990;7.866;2022-11-15T06:58:15;10.10;99.90
5023;DHT22;2530;47.990;7.866;2022-11-15T07:00:41;10.00;99.90
5023;DHT22;2530;47.990;7.866;2022-11-15T07:03:07;10.10;99.90
5023;DHT22;2530;47.990;7.866;2022-11-15T07:05:33;10.10;99.90
5023;DHT22;2530;47.990;7.866;2022-11-15T07:07:59;10.10;99.90
5023;DHT22;2530;47.990;7.866;2022-11-15T07:10:25;10.20;99.90
5023;DHT22;2530;47.990;7.866;2022-11-15T07:12:52;10.20;99.90
5023;DHT22;2530;47.990;7.866;2022-11-15T07:15:19;10.20;99.90
5023;DHT22;2530;47.990;7.866;2022-11-15T07:17:45;10.10;99.90
5023;DHT22;2530;47.990;7.866;2022-11-15T07:20:11;10.10;99.90
5023;DHT22;2530;47.990;7.866;2022-11-15T07:22:39;10.10;99.90
5023;DHT22;2530;47.990;7.866;2022-11-15T07:25:04;10.10;99.90
5023;DHT22;2530;47.990;7.866;2022-11-15T07:27:30;10.20;99.90
5023;DHT22;2530;47.990;7.866;2022-11-15T07:29:56;10.30;99.90
5023;DHT22;2530;47.990;7.866;2022-11-15T07:32:21;10.30;99.90
5023;DHT22;2530;47.990;7.866;2022-11-15T07:34:47;10.30;99.90
5023;DHT22;2530;47.990;7.866;2022-11-15T07:37:12;10.40;99.90
5023;DHT22;2530;47.990;7.866;2022-11-15T07:39:38;10.40;99.90
5023;DHT22;2530;47.990;7.866;2022-11-15T07:42:03;10.40;99.90
5023;DHT22;2530;47.990;7.866;2022-11-15T07:44:50;10.40;99.90
5023;DHT22;2530;47.990;7.866;2022-11-15T07:47:22;10.40;99.90
5023;DHT22;2530;47.990;7.866;2022-11-15T07:49:47;10.40;99.90
5023;DHT22;2530;47.990;7.866;2022-11-15T07:52:13;10.50;99.90
5023;DHT22;2530;47.990;7.866;2022-11-15T07:54:39;10.50;99.90
5023;DHT22;2530;47.990;7.866;2022-11-15T07:57:05;10.50;99.90
5023;DHT22;2530;47.990;7.866;2022-11-15T07:59:32;10.50;99.90
5023;DHT22;2530;47.990;7.866;2022-11-15T08:01:57;10.60;99.90
5023;DHT22;2530;47.990;7.866;2022-11-15T08:04:23;10.60;99.90
5023;DHT22;2530;47.990;7.866;2022-11-15T08:06:49;10.80;99.90
5023;DHT22;2530;47.990;7.866;2022-11-15T08:09:14;10.80;99.90
5023;DHT22;2530;47.990;7.866;2022-11-15T08:11:40;10.80;99.90
5023;DHT22;2530;47.990;7.866;2022-11-15T08:14:05;11.00;99.90
5023;DHT22;2530;47.990;7.866;2022-11-15T08:16:31;11.00;99.90
5023;DHT22;2530;47.990;7.866;2022-11-15T08:18:56;11.00;99.90
5023;DHT22;2530;47.990;7.866;2022-11-15T08:21:22;11.00;99.90
5023;DHT22;2530;47.990;7.866;2022-11-15T08:23:48;11.00;99.90
5023;DHT22;2530;47.990;7.866;2022-11-15T08:26:13;11.00;99.90
5023;DHT22;2530;47.990;7.866;2022-11-15T08:28:39;11.00;99.90
5023;DHT22;2530;47.990;7.866;2022-11-15T08:31:05;11.10;99.90
5023;DHT22;2530;47.990;7.866;2022-11-15T08:33:31;11.10;99.90
5023;DHT22;2530;47.990;7.866;2022-11-15T08:35:58;11.10;99.90
5023;DHT22;2530;47.990;7.866;2022-11-15T08:38:24;11.20;99.90
5023;DHT22;2530;47.990;7.866;2022-11-15T08:40:52;11.20;99.90
5023;DHT22;2530;47.990;7.866;2022-11-15T08:43:19;11.40;99.90
5023;DHT22;2530;47.990;7.866;2022-11-15T08:45:45;11.30;99.90
5023;DHT22;2530;47.990;7.866;2022-11-15T08:48:11;11.20;99.90
5023;DHT22;2530;47.990;7.866;2022-11-15T08:50:36;11.30;99.90
5023;DHT22;2530;47.990;7.866;2022-11-15T08:53:07;11.30;99.90
5023;DHT22;2530;47.990;7.866;2022-11-15T08:55:37;11.20;99.90
5023;DHT22;2530;47.990;7.866;2022-11-15T08:58:03;11.30;99.90
5023;DHT22;2530;47.990;7.866;2022-11-15T09:00:29;11.30;99.90
5023;DHT22;2530;47.990;7.866;2022-11-15T09:02:54;11.30;99.90
5023;DHT22;2530;47.990;7.866;2022-11-15T09:05:20;11.30;99.90
5023;DHT22;2530;47.990;7.866;2022-11-15T09:07:45;11.30;99.90
5023;DHT22;2530;47.990;7.866;2022-11-15T09:10:11;11.40;99.90
5023;DHT22;2530;47.990;7.866;2022-11-15T09:12:37;11.50;99.90
5023;DHT22;2530;47.990;7.866;2022-11-15T09:15:03;11.50;99.90
5023;DHT22;2530;47.990;7.866;2022-11-15T09:17:29;11.60;99.90
5023;DHT22;2530;47.990;7.866;2022-11-15T09:19:54;11.60;99.90
5023;DHT22;2530;47.990;7.866;2022-11-15T09:22:20;11.70;99.90
5023;DHT22;2530;47.990;7.866;2022-11-15T09:24:45;11.80;99.90
5023;DHT22;2530;47.990;7.866;2022-11-15T09:27:11;11.90;99.90
5023;DHT22;2530;47.990;7.866;2022-11-15T09:29:37;11.90;99.90
5023;DHT22;2530;47.990;7.866;2022-11-15T09:32:03;11.90;99.90
5023;DHT22;2530;47.990;7.866;2022-11-15T09:34:28;11.90;99.90
5023;DHT22;2530;47.990;7.866;2022-11-15T09:36:54;11.90;99.90
5023;DHT22;2530;47.990;7.866;2022-11-15T09:39:19;11.90;99.90
5023;DHT22;2530;47.990;7.866;2022-11-15T09:41:55;11.90;99.90
5023;DHT22;2530;47.990;7.866;2022-11-15T09:44:47;12.00;99.90
5023;DHT22;2530;47.990;7.866;2022-11-15T09:50:09;12.00;99.90
5023;DHT22;2530;47.990;7.866;2022-11-15T09:52:36;12.10;99.90
5023;DHT22;2530;47.990;7.866;2022-11-15T09:55:02;12.10;99.90
5023;DHT22;2530;47.990;7.866;2022-11-15T10:05:23;12.50;99.90
5023;DHT22;2530;47.990;7.866;2022-11-15T10:10:39;12.60;99.90
5023;DHT22;2530;47.990;7.866;2022-11-15T10:13:14;12.50;99.90
5023;DHT22;2530;47.990;7.866;2022-11-15T10:15:43;12.50;99.90
5023;DHT22;2530;47.990;7.866;2022-11-15T10:18:29;12.60;99.90
5023;DHT22;2530;47.990;7.866;2022-11-15T10:20:59;12.70;99.90
5023;DHT22;2530;47.990;7.866;2022-11-15T10:23:32;12.70;99.90
5023;DHT22;2530;47.990;7.866;2022-11-15T10:25:59;12.60;99.90
5023;DHT22;2530;47.990;7.866;2022-11-15T10:28:29;12.60;99.90
5023;DHT22;2530;47.990;7.866;2022-11-15T10:30:59;12.60;99.90
5023;DHT22;2530;47.990;7.866;2022-11-15T10:33:32;12.60;99.90
5023;DHT22;2530;47.990;7.866;2022-11-15T10:36:19;12.60;99.90
5023;DHT22;2530;47.990;7.866;2022-11-15T10:46:34;12.60;99.90
5023;DHT22;2530;47.990;7.866;2022-11-15T10:49:18;12.70;99.90
5023;DHT22;2530;47.990;7.866;2022-11-15T10:54:10;12.70;99.90
5023;DHT22;2530;47.990;7.866;2022-11-15T10:56:37;12.70;99.90
5023;DHT22;2530;47.990;7.866;2022-11-15T10:59:02;12.70;99.90
5023;DHT22;2530;47.990;7.866;2022-11-15T11:01:28;12.70;99.90
5023;DHT22;2530;47.990;7.866;2022-11-15T11:04:01;12.70;99.90
5023;DHT22;2530;47.990;7.866;2022-11-15T11:06:26;12.60;99.90
5023;DHT22;2530;47.990;7.866;2022-11-15T11:09:09;12.70;99.90
5023;DHT22;2530;47.990;7.866;2022-11-15T11:11:46;12.70;99.90
5023;DHT22;2530;47.990;7.866;2022-11-15T11:14:26;12.70;99.90
5023;DHT22;2530;47.990;7.866;2022-11-15T11:17:32;12.80;99.90
5023;DHT22;2530;47.990;7.866;2022-11-15T11:20:28;12.90;99.90
5023;DHT22;2530;47.990;7.866;2022-11-15T11:23:12;12.90;99.90
5023;DHT22;2530;47.990;7.866;2022-11-15T11:31:03;13.10;99.90
5023;DHT22;2530;47.990;7.866;2022-11-15T11:33:44;13.10;99.90
5023;DHT22;2530;47.990;7.866;2022-11-15T11:36:42;13.20;99.90
5023;DHT22;2530;47.990;7.866;2022-11-15T11:39:55;13.20;99.90
5023;DHT22;2530;47.990;7.866;2022-11-15T11:48:14;13.60;99.90
5023;DHT22;2530;47.990;7.866;2022-11-15T11:50:46;13.70;99.90
5023;DHT22;2530;47.990;7.866;2022-11-15T11:53:25;13.80;99.90
5023;DHT22;2530;47.990;7.866;2022-11-15T11:55:54;13.90;99.90
5023;DHT22;2530;47.990;7.866;2022-11-15T11:58:34;13.90;99.90
5023;DHT22;2530;47.990;7.866;2022-11-15T12:03:55;13.90;99.90
5023;DHT22;2530;47.990;7.866;2022-11-15T12:06:42;14.00;99.90
5023;DHT22;2530;47.990;7.866;2022-11-15T12:09:33;13.90;99.90
5023;DHT22;2530;47.990;7.866;2022-11-15T12:15:04;13.90;99.90
5023;DHT22;2530;47.990;7.866;2022-11-15T12:17:36;13.90;99.90
5023;DHT22;2530;47.990;7.866;2022-11-15T12:20:24;13.90;99.90
5023;DHT22;2530;47.990;7.866;2022-11-15T12:23:14;14.00;99.90
5023;DHT22;2530;47.990;7.866;2022-11-15T12:25:48;14.00;99.90
5023;DHT22;2530;47.990;7.866;2022-11-15T12:30:54;14.00;99.90
5023;DHT22;2530;47.990;7.866;2022-11-15T12:33:39;13.90;99.90
5023;DHT22;2530;47.990;7.866;2022-11-15T12:36:36;14.00;99.90
5023;DHT22;2530;47.990;7.866;2022-11-15T12:39:10;13.90;99.90
5023;DHT22;2530;47.990;7.866;2022-11-15T12:41:40;13.90;99.90
5023;DHT22;2530;47.990;7.866;2022-11-15T12:44:11;14.00;99.90
5023;DHT22;2530;47.990;7.866;2022-11-15T13:02:33;13.90;99.90
5023;DHT22;2530;47.990;7.866;2022-11-15T13:17:48;13.60;99.90
5023;DHT22;2530;47.990;7.866;2022-11-15T13:22:40;13.40;99.90
5023;DHT22;2530;47.990;7.866;2022-11-15T13:30:37;13.20;99.90
5023;DHT22;2530;47.990;7.866;2022-11-15T13:33:16;13.20;99.90
5023;DHT22;2530;47.990;7.866;2022-11-15T13:35:46;13.10;99.90
5023;DHT22;2530;47.990;7.866;2022-11-15T13:38:39;13.20;99.90
5023;DHT22;2530;47.990;7.866;2022-11-15T13:41:20;13.10;99.90
5023;DHT22;2530;47.990;7.866;2022-11-15T13:43:48;13.10;99.90
5023;DHT22;2530;47.990;7.866;2022-11-15T13:46:31;13.10;99.90
5023;DHT22;2530;47.990;7.866;2022-11-15T13:49:05;13.10;99.90
5023;DHT22;2530;47.990;7.866;2022-11-15T13:51:42;13.10;99.90
5023;DHT22;2530;47.990;7.866;2022-11-15T13:56:40;13.00;99.90
5023;DHT22;2530;47.990;7.866;2022-11-15T13:59:25;12.90;99.90
5023;DHT22;2530;47.990;7.866;2022-11-15T14:01:52;12.90;99.90
5023;DHT22;2530;47.990;7.866;2022-11-15T14:04:22;12.90;99.90
5023;DHT22;2530;47.990;7.866;2022-11-15T14:06:54;13.00;99.90
5023;DHT22;2530;47.990;7.866;2022-11-15T14:09:39;13.10;99.90
5023;DHT22;2530;47.990;7.866;2022-11-15T14:12:34;13.20;99.90
5023;DHT22;2530;47.990;7.866;2022-11-15T14:15:18;13.20;99.90
5023;DHT22;2530;47.990;7.866;2022-11-15T14:17:43;13.20;99.90
5023;DHT22;2530;47.990;7.866;2022-11-15T14:20:30;13.20;99.90
5023;DHT22;2530;47.990;7.866;2022-11-15T14:23:03;13.20;99.90
5023;DHT22;2530;47.990;7.866;2022-11-15T14:25:34;13.30;99.90
5023;DHT22;2530;47.990;7.866;2022-11-15T14:30:42;13.40;99.90
5023;DHT22;2530;47.990;7.866;2022-11-15T14:35:50;13.40;99.90
5023;DHT22;2530;47.990;7.866;2022-11-15T14:38:16;13.40;99.90
5023;DHT22;2530;47.990;7.866;2022-11-15T14:40:42;13.40;99.90
5023;DHT22;2530;47.990;7.866;2022-11-15T14:43:09;13.40;99.90
5023;DHT22;2530;47.990;7.866;2022-11-15T14:45:36;13.40;99.90
5023;DHT22;2530;47.990;7.866;2022-11-15T14:48:01;13.40;99.90
5023;DHT22;2530;47.990;7.866;2022-11-15T14:50:27;13.40;99.90
5023;DHT22;2530;47.990;7.866;2022-11-15T14:52:53;13.30;99.90
5023;DHT22;2530;47.990;7.866;2022-11-15T14:55:27;13.30;99.90
5023;DHT22;2530;47.990;7.866;2022-11-15T14:57:56;13.30;99.90
5023;DHT22;2530;47.990;7.866;2022-11-15T15:00:22;13.40;99.90
5023;DHT22;2530;47.990;7.866;2022-11-15T15:02:53;13.40;99.90
5023;DHT22;2530;47.990;7.866;2022-11-15T15:05:26;13.40;99.90
5023;DHT22;2530;47.990;7.866;2022-11-15T15:07:53;13.30;99.90
5023;DHT22;2530;47.990;7.866;2022-11-15T15:10:19;13.30;99.90
5023;DHT22;2530;47.990;7.866;2022-11-15T15:12:44;13.30;99.90
5023;DHT22;2530;47.990;7.866;2022-11-15T15:15:15;13.30;99.90
5023;DHT22;2530;47.990;7.866;2022-11-15T15:17:41;13.20;99.90
5023;DHT22;2530;47.990;7.866;2022-11-15T15:20:07;13.20;99.90
5023;DHT22;2530;47.990;7.866;2022-11-15T15:22:33;13.10;99.90
5023;DHT22;2530;47.990;7.866;2022-11-15T15:24:58;13.20;99.90
5023;DHT22;2530;47.990;7.866;2022-11-15T15:27:24;13.10;99.90
5023;DHT22;2530;47.990;7.866;2022-11-15T15:29:49;13.10;99.90
5023;DHT22;2530;47.990;7.866;2022-11-15T15:32:15;13.00;99.90
5023;DHT22;2530;47.990;7.866;2022-11-15T15:34:40;13.00;99.90
5023;DHT22;2530;47.990;7.866;2022-11-15T15:37:26;13.00;99.90
5023;DHT22;2530;47.990;7.866;2022-11-15T15:39:53;12.90;99.90
5023;DHT22;2530;47.990;7.866;2022-11-15T15:42:19;12.90;99.90
5023;DHT22;2530;47.990;7.866;2022-11-15T15:44:49;12.90;99.90
5023;DHT22;2530;47.990;7.866;2022-11-15T15:47:17;12.90;99.90
5023;DHT22;2530;47.990;7.866;2022-11-15T15:49:43;12.90;99.90
5023;DHT22;2530;47.990;7.866;2022-11-15T15:52:09;12.80;99.90
5023;DHT22;2530;47.990;7.866;2022-11-15T15:54:35;12.80;99.90
5023;DHT22;2530;47.990;7.866;2022-11-15T15:57:01;12.90;99.90
5023;DHT22;2530;47.990;7.866;2022-11-15T15:59:26;12.80;99.90
5023;DHT22;2530;47.990;7.866;2022-11-15T16:01:52;12.80;99.90
5023;DHT22;2530;47.990;7.866;2022-11-15T16:04:17;12.80;99.90
5023;DHT22;2530;47.990;7.866;2022-11-15T16:06:44;12.90;99.90
5023;DHT22;2530;47.990;7.866;2022-11-15T16:09:17;12.90;99.90
5023;DHT22;2530;47.990;7.866;2022-11-15T16:11:46;12.80;99.90
5023;DHT22;2530;47.990;7.866;2022-11-15T16:14:12;12.80;99.90
5023;DHT22;2530;47.990;7.866;2022-11-15T16:16:38;12.80;99.90
5023;DHT22;2530;47.990;7.866;2022-11-15T16:19:04;12.80;99.90
5023;DHT22;2530;47.990;7.866;2022-11-15T16:21:30;12.70;99.90
5023;DHT22;2530;47.990;7.866;2022-11-15T16:23:55;12.70;99.90
5023;DHT22;2530;47.990;7.866;2022-11-15T16:26:27;12.60;99.90
5023;DHT22;2530;47.990;7.866;2022-11-15T16:28:53;12.50;99.90
5023;DHT22;2530;47.990;7.866;2022-11-15T16:31:19;12.50;99.90
5023;DHT22;2530;47.990;7.866;2022-11-15T16:33:47;12.50;99.90
5023;DHT22;2530;47.990;7.866;2022-11-15T16:38:45;12.50;99.90
5023;DHT22;2530;47.990;7.866;2022-11-15T16:41:10;12.50;99.90
5023;DHT22;2530;47.990;7.866;2022-11-15T16:43:36;12.50;99.90
5023;DHT22;2530;47.990;7.866;2022-11-15T16:46:23;12.50;99.90
5023;DHT22;2530;47.990;7.866;2022-11-15T16:48:49;12.50;99.90
5023;DHT22;2530;47.990;7.866;2022-11-15T16:51:15;12.60;99.90
5023;DHT22;2530;47.990;7.866;2022-11-15T16:53:41;12.50;99.90
5023;DHT22;2530;47.990;7.866;2022-11-15T16:56:27;12.50;99.90
5023;DHT22;2530;47.990;7.866;2022-11-15T16:58:53;12.60;99.90
5023;DHT22;2530;47.990;7.866;2022-11-15T17:01:24;12.60;99.90
5023;DHT22;2530;47.990;7.866;2022-11-15T17:03:50;12.60;99.90
5023;DHT22;2530;47.990;7.866;2022-11-15T17:06:16;12.60;99.90
5023;DHT22;2530;47.990;7.866;2022-11-15T17:08:43;12.80;99.90
5023;DHT22;2530;47.990;7.866;2022-11-15T17:11:12;12.80;99.90
5023;DHT22;2530;47.990;7.866;2022-11-15T17:13:38;12.80;99.90
5023;DHT22;2530;47.990;7.866;2022-11-15T17:16:05;12.80;99.90
5023;DHT22;2530;47.990;7.866;2022-11-15T17:18:32;12.60;99.90
5023;DHT22;2530;47.990;7.866;2022-11-15T17:21:23;12.60;99.90
5023;DHT22;2530;47.990;7.866;2022-11-15T17:23:48;12.40;99.90
5023;DHT22;2530;47.990;7.866;2022-11-15T17:26:15;12.40;99.90
5023;DHT22;2530;47.990;7.866;2022-11-15T17:28:41;12.30;99.90
5023;DHT22;2530;47.990;7.866;2022-11-15T17:31:09;12.20;99.90
5023;DHT22;2530;47.990;7.866;2022-11-15T17:33:36;12.20;99.90
5023;DHT22;2530;47.990;7.866;2022-11-15T17:36:04;12.10;99.90
5023;DHT22;2530;47.990;7.866;2022-11-15T17:38:30;12.00;99.90
5023;DHT22;2530;47.990;7.866;2022-11-15T17:41:09;11.90;99.90
5023;DHT22;2530;47.990;7.866;2022-11-15T17:43:36;11.80;99.90
5023;DHT22;2530;47.990;7.866;2022-11-15T17:46:11;11.80;99.90
5023;DHT22;2530;47.990;7.866;2022-11-15T17:48:37;11.80;99.90
5023;DHT22;2530;47.990;7.866;2022-11-15T17:51:04;11.70;99.90
5023;DHT22;2530;47.990;7.866;2022-11-15T17:53:35;11.70;99.90
5023;DHT22;2530;47.990;7.866;2022-11-15T17:56:07;11.70;99.90
5023;DHT22;2530;47.990;7.866;2022-11-15T17:58:34;11.70;99.90
5023;DHT22;2530;47.990;7.866;2022-11-15T18:01:07;11.70;99.90
5023;DHT22;2530;47.990;7.866;2022-11-15T18:03:36;11.60;99.90
5023;DHT22;2530;47.990;7.866;2022-11-15T18:06:05;11.60;99.90
5023;DHT22;2530;47.990;7.866;2022-11-15T18:08:32;11.60;99.90
5023;DHT22;2530;47.990;7.866;2022-11-15T18:11:08;11.50;99.90
5023;DHT22;2530;47.990;7.866;2022-11-15T18:13:38;11.60;99.90
5023;DHT22;2530;47.990;7.866;2022-11-15T18:16:05;11.80;99.90
5023;DHT22;2530;47.990;7.866;2022-11-15T18:18:33;11.90;99.90